Time;durP1;ratioP1;P1;durP2;ratioP2;P2;SDS_P1;SDS_P2;PMS_P1;PMS_P2;Temp;Humidity;BMP_temperature;BMP_pressure;BME280_temperature;BME280_humidity;BME280_pressure;Samples;Min_cycle;Max_cycle;Signal;HPM_P1;HPM_P2
2021/12/20 00:00:47;;;;;;;14.03;4.50;;;15.10;73.00;;;;;;1989252;28;20209;-76
2021/12/20 00:01:49;;;;;;;9.50;3.80;;;15.10;73.00;;;;;;1989114;28;20186;-74
2021/12/20 00:02:51;;;;;;;9.15;4.63;;;15.10;73.00;;;;;;1989011;28;20209;-74
2021/12/20 00:03:50;;;;;;;6.47;3.13;;;15.10;73.00;;;;;;1989281;28;20450;-75
2021/12/20 00:04:51;;;;;;;15.27;4.83;;;15.10;73.00;;;;;;1989171;28;20625;-74
2021/12/20 00:05:50;;;;;;;9.55;4.45;;;15.10;73.20;;;;;;1989077;28;20174;-74
2021/12/20 00:06:48;;;;;;;10.10;4.60;;;15.10;73.10;;;;;;1989005;28;20202;-73
2021/12/20 00:07:48;;;;;;;10.87;4.30;;;15.10;73.10;;;;;;1989108;28;20622;-73
2021/12/20 00:08:46;;;;;;;13.30;5.25;;;15.10;73.20;;;;;;1989130;28;20611;-73
2021/12/20 00:09:45;;;;;;;6.60;4.33;;;15.10;73.10;;;;;;1988653;28;20225;-74
2021/12/20 00:10:44;;;;;;;14.07;4.70;;;15.10;73.10;;;;;;1988473;28;20170;-74
2021/12/20 00:11:42;;;;;;;8.80;4.47;;;15.10;73.20;;;;;;1988079;28;20182;-74
2021/12/20 00:12:42;;;;;;;10.03;4.50;;;15.10;73.00;;;;;;1988548;28;20904;-75
2021/12/20 00:13:40;;;;;;;8.63;4.63;;;15.10;73.00;;;;;;1989007;28;20178;-74
2021/12/20 00:14:39;;;;;;;10.70;5.10;;;15.10;73.00;;;;;;1989162;28;20175;-75
2021/12/20 00:15:37;;;;;;;6.97;3.50;;;15.10;73.70;;;;;;1989061;28;20182;-73
2021/12/20 00:16:36;;;;;;;6.80;3.90;;;15.10;73.00;;;;;;1988992;28;20213;-73
2021/12/20 00:17:34;;;;;;;14.43;4.00;;;15.10;73.10;;;;;;1988487;28;20214;-76
2021/12/20 00:18:33;;;;;;;10.97;4.97;;;15.10;73.00;;;;;;1988403;28;20206;-74
2021/12/20 00:19:31;;;;;;;9.33;4.97;;;15.10;73.00;;;;;;1989014;28;20181;-74
2021/12/20 00:20:30;;;;;;;9.00;4.70;;;15.10;73.10;;;;;;1989109;28;20229;-74
2021/12/20 00:21:28;;;;;;;12.10;4.07;;;15.00;72.90;;;;;;1989026;28;20181;-74
2021/12/20 00:22:27;;;;;;;10.53;4.03;;;15.10;73.00;;;;;;1988483;28;20167;-74
2021/12/20 00:23:26;;;;;;;9.60;4.17;;;15.10;73.10;;;;;;1988893;28;20595;-74
2021/12/20 00:24:25;;;;;;;8.77;4.68;;;15.00;73.10;;;;;;1989059;28;20177;-74
2021/12/20 00:25:24;;;;;;;7.97;4.20;;;15.00;73.00;;;;;;1988329;28;20197;-75
2021/12/20 00:26:22;;;;;;;7.53;4.07;;;15.00;73.10;;;;;;1988551;28;20205;-74
2021/12/20 00:27:21;;;;;;;8.93;3.70;;;15.20;73.30;;;;;;1989070;28;20421;-75
2021/12/20 00:28:20;;;;;;;8.77;4.07;;;15.00;73.10;;;;;;1988944;28;20202;-75
2021/12/20 00:29:19;;;;;;;11.25;4.38;;;15.10;73.10;;;;;;1988965;28;20180;-75
2021/12/20 00:30:17;;;;;;;8.67;4.90;;;15.00;73.00;;;;;;1989057;28;20197;-74
2021/12/20 00:31:16;;;;;;;8.10;4.17;;;15.00;73.20;;;;;;1988782;28;20218;-73
2021/12/20 00:32:16;;;;;;;8.33;4.10;;;15.00;73.10;;;;;;1989014;28;20282;-74
2021/12/20 00:33:15;;;;;;;14.30;4.38;;;15.00;73.10;;;;;;1988780;28;20236;-74
2021/12/20 00:34:13;;;;;;;13.70;5.00;;;15.00;73.10;;;;;;1989016;28;20237;-74
2021/12/20 00:35:13;;;;;;;8.73;4.60;;;15.20;73.30;;;;;;1988991;28;20422;-74
2021/12/20 00:36:20;;;;;;;11.25;4.47;;;15.10;73.30;;;;;;1988239;28;20208;-74
2021/12/20 00:41:14;;;;;;;11.77;4.57;;;15.00;73.40;;;;;;1988513;28;20155;-73
2021/12/20 00:42:12;;;;;;;5.57;3.55;;;15.00;73.30;;;;;;1988732;28;20720;-73
2021/12/20 00:43:10;;;;;;;7.33;4.20;;;15.00;73.40;;;;;;1988972;28;20166;-73
2021/12/20 00:44:09;;;;;;;10.00;4.47;;;15.00;73.30;;;;;;1988930;28;20664;-74
2021/12/20 00:45:09;;;;;;;8.73;4.13;;;15.00;73.20;;;;;;1988868;28;20205;-74
2021/12/20 00:46:08;;;;;;;5.30;3.35;;;15.00;73.20;;;;;;1988848;28;20257;-74
2021/12/20 00:47:07;;;;;;;8.87;4.10;;;15.00;73.20;;;;;;1988905;28;20173;-73
2021/12/20 00:48:05;;;;;;;7.20;3.90;;;15.00;73.20;;;;;;1989002;28;20182;-74
2021/12/20 00:49:04;;;;;;;7.70;3.77;;;15.00;73.20;;;;;;1988234;28;20424;-74
2021/12/20 00:50:05;;;;;;;13.60;4.67;;;15.00;73.20;;;;;;1988394;28;20174;-74
2021/12/20 00:51:04;;;;;;;8.93;4.45;;;15.00;73.10;;;;;;1988860;28;20519;-74
2021/12/20 00:52:04;;;;;;;15.13;4.80;;;15.00;73.20;;;;;;1988881;28;20236;-74
2021/12/20 00:53:03;;;;;;;5.65;3.00;;;15.00;73.20;;;;;;1988958;28;20421;-74
2021/12/20 00:54:01;;;;;;;7.90;3.60;;;15.00;73.30;;;;;;1988885;28;20552;-74
2021/12/20 00:55:00;;;;;;;9.80;4.17;;;15.00;73.20;;;;;;1988786;28;20174;-74
2021/12/20 00:55:58;;;;;;;10.10;4.13;;;15.00;73.20;;;;;;1988860;28;20182;-74
2021/12/20 00:56:57;;;;;;;8.73;3.83;;;15.00;73.30;;;;;;1988894;28;20174;-73
2021/12/20 00:57:58;;;;;;;5.07;3.00;;;15.00;73.20;;;;;;1988845;28;20185;-73
2021/12/20 00:58:56;;;;;;;6.13;3.25;;;15.00;73.30;;;;;;1988846;28;20303;-74
2021/12/20 00:59:55;;;;;;;13.27;4.20;;;15.00;73.30;;;;;;1988883;28;20175;-74
2021/12/20 01:00:55;;;;;;;7.10;4.00;;;15.10;73.50;;;;;;1988886;28;20712;-74
2021/12/20 01:01:53;;;;;;;11.02;4.38;;;15.00;73.40;;;;;;1988913;28;20178;-74
2021/12/20 01:02:53;;;;;;;5.70;3.47;;;15.00;73.30;;;;;;1989050;28;20183;-75
2021/12/20 01:03:52;;;;;;;8.57;3.65;;;15.00;73.30;;;;;;1988905;28;20664;-75
2021/12/20 01:04:50;;;;;;;6.50;3.40;;;15.00;73.30;;;;;;1988662;28;20201;-74
2021/12/20 01:05:49;;;;;;;8.33;4.10;;;15.00;73.30;;;;;;1988298;28;20196;-74
2021/12/20 01:06:47;;;;;;;6.77;3.83;;;15.00;73.40;;;;;;1988224;28;20234;-74
2021/12/20 01:07:46;;;;;;;8.07;3.90;;;15.00;73.30;;;;;;1988783;28;20251;-74
2021/12/20 01:08:46;;;;;;;12.67;4.33;;;15.00;73.30;;;;;;1988952;28;20203;-74
2021/12/20 01:09:45;;;;;;;6.95;3.83;;;15.00;73.30;;;;;;1989004;28;20174;-73
2021/12/20 01:10:50;;;;;;;10.53;4.00;;;15.00;73.30;;;;;;1988853;28;20182;-74
2021/12/20 01:11:52;;;;;;;7.68;4.43;;;15.00;73.40;;;;;;1988926;28;20155;-74
2021/12/20 01:12:53;;;;;;;6.43;3.35;;;15.00;73.40;;;;;;1988213;28;20171;-74
2021/12/20 01:13:53;;;;;;;5.97;3.50;;;15.00;73.40;;;;;;1988202;28;20268;-73
2021/12/20 01:14:58;;;;;;;7.43;3.45;;;15.00;73.40;;;;;;1988840;28;20174;-74
2021/12/20 01:16:00;;;;;;;6.78;3.50;;;15.00;73.40;;;;;;1988216;28;20245;-74
2021/12/20 01:17:04;;;;;;;6.80;3.78;;;15.00;73.40;;;;;;1988070;28;20253;-74
2021/12/20 01:18:05;;;;;;;6.43;3.13;;;15.00;73.40;;;;;;1988875;28;20187;-74
2021/12/20 01:19:03;;;;;;;7.18;3.85;;;15.00;73.40;;;;;;1988969;28;20174;-74
2021/12/20 01:20:04;;;;;;;10.27;3.70;;;15.00;73.50;;;;;;1988840;28;20171;-74
2021/12/20 01:21:03;;;;;;;6.50;3.40;;;15.00;73.40;;;;;;1988817;28;20175;-75
2021/12/20 01:22:04;;;;;;;6.00;4.07;;;15.00;73.60;;;;;;1988871;28;20263;-74
2021/12/20 01:23:05;;;;;;;10.52;3.75;;;15.00;73.60;;;;;;1988124;28;20259;-73
2021/12/20 01:24:04;;;;;;;8.20;4.30;;;15.00;73.70;;;;;;1988235;28;20174;-74
2021/12/20 01:25:03;;;;;;;8.77;3.70;;;15.00;73.80;;;;;;1988711;28;20206;-74
2021/12/20 01:26:03;;;;;;;7.13;3.75;;;15.00;74.00;;;;;;1987954;28;20418;-75
2021/12/20 01:27:02;;;;;;;11.18;4.07;;;15.00;74.80;;;;;;1988094;28;20269;-75
2021/12/20 01:28:01;;;;;;;7.07;3.83;;;15.00;74.80;;;;;;1988868;28;20178;-74
2021/12/20 01:29:00;;;;;;;6.00;2.80;;;15.00;74.90;;;;;;1988756;28;20185;-75
2021/12/20 01:29:59;;;;;;;7.60;3.63;;;15.00;75.10;;;;;;1988803;28;20178;-75
2021/12/20 01:30:57;;;;;;;8.43;3.83;;;15.00;75.30;;;;;;1988629;28;20465;-75
2021/12/20 01:31:56;;;;;;;6.47;3.40;;;14.90;74.90;;;;;;1988914;28;20241;-75
2021/12/20 01:32:55;;;;;;;8.00;3.10;;;14.90;75.30;;;;;;1988707;28;20182;-74
2021/12/20 01:33:54;;;;;;;11.40;4.43;;;14.90;75.20;;;;;;1989300;28;20181;-74
2021/12/20 01:34:52;;;;;;;7.30;3.70;;;14.90;75.40;;;;;;1990353;28;20205;-73
2021/12/20 01:35:51;;;;;;;5.30;3.60;;;15.10;75.60;;;;;;1990194;28;20467;-74
2021/12/20 01:36:50;;;;;;;6.97;3.87;;;14.90;75.40;;;;;;1990082;28;20191;-74
2021/12/20 01:37:49;;;;;;;6.87;3.80;;;14.90;75.40;;;;;;1990067;28;20179;-75
2021/12/20 01:38:47;;;;;;;12.10;3.60;;;14.90;75.20;;;;;;1990219;28;20611;-74
2021/12/20 01:39:46;;;;;;;11.37;4.00;;;14.90;75.20;;;;;;1990365;28;20179;-75
2021/12/20 01:40:44;;;;;;;5.80;3.50;;;14.90;75.30;;;;;;1981913;29;20175;-73
2021/12/20 01:41:44;;;;;;;7.27;3.37;;;14.90;75.30;;;;;;1981825;29;20179;-73
2021/12/20 01:42:43;;;;;;;7.10;3.90;;;14.90;75.30;;;;;;1989876;28;20175;-74
2021/12/20 01:43:42;;;;;;;6.18;3.60;;;15.00;75.30;;;;;;1990094;28;20181;-74
2021/12/20 01:44:40;;;;;;;6.60;3.70;;;14.90;75.20;;;;;;1990228;28;20171;-73
2021/12/20 01:45:39;;;;;;;8.03;3.10;;;14.90;75.40;;;;;;1989460;28;20171;-74
2021/12/20 01:46:38;;;;;;;9.17;3.80;;;14.90;75.40;;;;;;1989546;28;20748;-73
2021/12/20 01:47:39;;;;;;;7.80;3.60;;;14.90;75.50;;;;;;1990171;28;20163;-74
2021/12/20 01:48:39;;;;;;;9.65;3.83;;;14.90;75.40;;;;;;1990282;28;20175;-73
2021/12/20 01:49:51;;;;;;;8.50;4.72;;;14.90;75.30;;;;;;1989511;28;20187;-74
2021/12/20 01:51:14;;;;;;;7.90;3.47;;;14.90;75.20;;;;;;1989625;28;20585;-74
2021/12/20 01:52:14;;;;;;;6.63;3.40;;;14.90;75.00;;;;;;1989922;28;20194;-74
2021/12/20 01:53:25;;;;;;;10.40;3.70;;;14.90;75.00;;;;;;1990170;28;20217;-74
2021/12/20 01:54:24;;;;;;;5.88;3.20;;;14.90;75.10;;;;;;1989357;28;20209;-74
2021/12/20 01:55:22;;;;;;;5.53;3.60;;;14.90;75.20;;;;;;1989511;28;20181;-75
2021/12/20 01:56:21;;;;;;;7.80;3.50;;;14.90;75.20;;;;;;1989917;28;20556;-75
2021/12/20 01:57:21;;;;;;;7.67;3.50;;;14.90;75.30;;;;;;1989796;28;20179;-75
2021/12/20 01:58:21;;;;;;;5.60;3.22;;;14.90;75.20;;;;;;1989333;28;20811;-75
2021/12/20 01:59:20;;;;;;;7.60;3.05;;;14.90;75.10;;;;;;1989437;28;20221;-75
2021/12/20 02:00:24;;;;;;;5.03;3.03;;;14.90;75.00;;;;;;1989984;28;20171;-73
2021/12/20 02:01:23;;;;;;;6.07;2.97;;;14.90;75.00;;;;;;1989336;28;20233;-73
2021/12/20 02:02:23;;;;;;;10.05;4.07;;;14.90;75.20;;;;;;1989645;28;20270;-74
2021/12/20 02:03:21;;;;;;;5.78;3.22;;;14.90;75.00;;;;;;1990074;28;20217;-75
2021/12/20 02:04:21;;;;;;;8.03;3.63;;;14.90;75.10;;;;;;1990086;28;20269;-75
2021/12/20 02:05:29;;;;;;;7.45;3.20;;;14.90;74.90;;;;;;1989973;28;20171;-74
2021/12/20 02:06:34;;;;;;;9.60;3.72;;;14.90;75.00;;;;;;1990035;28;20198;-74
2021/12/20 02:07:50;;;;;;;6.47;3.15;;;15.20;75.20;;;;;;1990066;28;20230;-75
2021/12/20 02:08:51;;;;;;;9.52;3.85;;;14.90;74.90;;;;;;1989499;28;20505;-74
2021/12/20 02:09:51;;;;;;;5.67;2.70;;;14.90;74.80;;;;;;1989984;28;20265;-74
2021/12/20 02:10:56;;;;;;;7.18;2.97;;;14.90;75.00;;;;;;1989919;28;20170;-75
2021/12/20 02:11:54;;;;;;;7.90;3.15;;;14.90;74.90;;;;;;1989908;28;20256;-74
2021/12/20 02:12:53;;;;;;;7.93;3.30;;;14.90;74.90;;;;;;1990000;28;20332;-75
2021/12/20 02:13:52;;;;;;;7.40;3.25;;;14.90;75.70;;;;;;1989989;28;20272;-75
2021/12/20 02:14:50;;;;;;;7.40;3.77;;;14.90;75.20;;;;;;1989923;28;20238;-74
2021/12/20 02:15:49;;;;;;;4.33;3.00;;;14.90;75.30;;;;;;1990007;28;20225;-74
2021/12/20 02:16:48;;;;;;;6.63;3.00;;;14.90;75.40;;;;;;1989681;28;20276;-74
2021/12/20 02:17:46;;;;;;;9.67;3.07;;;14.90;75.40;;;;;;1990074;28;20664;-74
2021/12/20 02:18:45;;;;;;;9.37;3.50;;;14.90;75.50;;;;;;1989890;28;20174;-74
2021/12/20 02:19:44;;;;;;;9.10;4.10;;;14.90;75.40;;;;;;1989978;28;20226;-74
2021/12/20 02:20:42;;;;;;;6.73;3.73;;;14.90;75.60;;;;;;1989858;28;20233;-74
2021/12/20 02:21:44;;;;;;;18.10;4.43;;;14.80;75.50;;;;;;1990004;28;20206;-74
2021/12/20 02:22:42;;;;;;;6.57;3.40;;;14.90;76.30;;;;;;1989733;28;20186;-74
2021/12/20 02:23:42;;;;;;;8.40;3.27;;;14.90;75.50;;;;;;1989955;28;20233;-74
2021/12/20 02:24:41;;;;;;;6.72;3.50;;;14.90;75.60;;;;;;1989821;28;20182;-75
2021/12/20 02:25:40;;;;;;;10.10;3.30;;;14.80;75.70;;;;;;1990087;28;20206;-75
2021/12/20 02:26:38;;;;;;;5.17;2.90;;;14.90;76.50;;;;;;1989753;28;20194;-75
2021/12/20 02:27:37;;;;;;;7.83;3.53;;;14.80;76.00;;;;;;1989793;28;20436;-75
2021/12/20 02:28:40;;;;;;;4.60;2.50;;;14.90;76.00;;;;;;1989904;28;20257;-74
2021/12/20 02:29:45;;;;;;;6.57;2.90;;;14.80;76.00;;;;;;1990136;28;20171;-75
2021/12/20 02:36:52;;;;;;;7.15;3.10;;;14.80;76.00;;;;;;1989741;28;20166;-74
2021/12/20 02:37:26;;;;;;;5.72;2.83;;;14.80;76.20;;;;;;1989904;28;20234;-73
2021/12/20 02:38:26;;;;;;;3.70;2.20;;;14.80;76.40;;;;;;1989697;28;20214;-73
2021/12/20 02:39:24;;;;;;;5.43;3.15;;;14.80;76.40;;;;;;1989944;28;20178;-74
2021/12/20 02:40:23;;;;;;;6.00;2.70;;;14.80;76.70;;;;;;1989737;28;20178;-74
2021/12/20 02:41:27;;;;;;;6.97;2.50;;;14.80;76.20;;;;;;1989820;28;20190;-74
2021/12/20 02:42:32;;;;;;;10.00;3.95;;;14.80;76.20;;;;;;1989140;28;20611;-75
2021/12/20 02:43:35;;;;;;;5.53;2.30;;;14.80;76.10;;;;;;1989300;28;20701;-75
2021/12/20 02:44:34;;;;;;;5.70;3.47;;;14.80;76.50;;;;;;1989738;28;20170;-74
2021/12/20 02:45:36;;;;;;;5.87;3.03;;;14.80;76.10;;;;;;1989140;28;20635;-74
2021/12/20 02:47:38;;;;;;;6.75;2.92;;;14.90;76.30;;;;;;1988965;28;20653;-75
2021/12/20 02:48:38;;;;;;;5.07;2.50;;;14.80;76.90;;;;;;1989753;28;20536;-74
2021/12/20 02:49:36;;;;;;;4.53;2.90;;;14.80;76.10;;;;;;1989646;28;20200;-74
2021/12/20 02:50:35;;;;;;;4.50;2.83;;;14.90;76.20;;;;;;1989715;28;20189;-74
2021/12/20 02:51:34;;;;;;;6.00;3.00;;;14.80;76.10;;;;;;1989682;28;20249;-73
2021/12/20 02:52:33;;;;;;;3.85;2.80;;;14.90;76.10;;;;;;1989605;28;20181;-74
2021/12/20 02:53:31;;;;;;;5.50;3.30;;;14.80;75.90;;;;;;1989610;28;20266;-74
2021/12/20 02:54:30;;;;;;;4.40;2.50;;;14.80;76.00;;;;;;1989885;28;20206;-74
2021/12/20 02:55:29;;;;;;;11.30;3.23;;;14.90;76.10;;;;;;1989589;28;20178;-74
2021/12/20 02:56:27;;;;;;;7.93;3.70;;;14.90;76.00;;;;;;1989540;28;20995;-74
2021/12/20 02:57:26;;;;;;;4.77;2.37;;;14.90;75.90;;;;;;1989061;28;20190;-74
2021/12/20 02:58:24;;;;;;;5.00;2.57;;;14.80;75.80;;;;;;1989008;28;20656;-74
2021/12/20 02:59:23;;;;;;;9.57;3.60;;;14.90;75.90;;;;;;1989748;28;20179;-74
2021/12/20 03:00:22;;;;;;;4.37;2.83;;;14.90;76.00;;;;;;1989576;28;20257;-74
2021/12/20 03:01:21;;;;;;;8.40;3.70;;;14.90;75.80;;;;;;1988964;28;20461;-74
2021/12/20 03:02:22;;;;;;;5.13;2.60;;;14.80;75.80;;;;;;1989058;28;20174;-74
2021/12/20 03:03:20;;;;;;;6.80;3.03;;;14.80;76.00;;;;;;1989752;28;20175;-74
2021/12/20 03:04:19;;;;;;;5.17;2.40;;;14.80;75.90;;;;;;1988985;28;20286;-74
2021/12/20 03:05:18;;;;;;;6.60;2.77;;;14.80;76.00;;;;;;1989119;28;20198;-74
2021/12/20 03:06:28;;;;;;;5.73;2.60;;;14.80;76.00;;;;;;1989594;28;20257;-74
2021/12/20 03:07:27;;;;;;;3.92;2.63;;;14.80;75.80;;;;;;1989512;28;20186;-74
2021/12/20 03:08:26;;;;;;;8.75;3.03;;;14.80;76.00;;;;;;1989622;28;20222;-74
2021/12/20 03:09:33;;;;;;;5.07;2.40;;;14.80;75.90;;;;;;1989514;28;20643;-74
2021/12/20 03:10:33;;;;;;;5.22;2.28;;;14.80;75.90;;;;;;1989613;28;20162;-74
2021/12/20 03:11:32;;;;;;;4.28;3.38;;;14.80;75.80;;;;;;1989430;28;20269;-74
2021/12/20 03:12:32;;;;;;;3.90;3.10;;;14.80;75.90;;;;;;1989522;28;20221;-74
2021/12/20 03:13:31;;;;;;;5.47;2.70;;;14.80;75.90;;;;;;1989452;28;20409;-74
2021/12/20 03:14:42;;;;;;;5.43;2.60;;;14.80;76.00;;;;;;1989494;28;20221;-74
2021/12/20 03:15:41;;;;;;;5.10;2.63;;;14.80;76.30;;;;;;1989522;28;20178;-74
2021/12/20 03:16:40;;;;;;;5.07;3.03;;;14.80;76.30;;;;;;1988685;28;20258;-74
2021/12/20 03:17:39;;;;;;;6.30;2.67;;;14.80;76.40;;;;;;1988889;28;20175;-74
2021/12/20 03:18:37;;;;;;;8.57;2.95;;;15.10;76.60;;;;;;1989366;28;20206;-74
2021/12/20 03:19:37;;;;;;;7.60;3.10;;;14.80;76.10;;;;;;1989539;28;20572;-74
2021/12/20 03:20:35;;;;;;;4.70;2.70;;;14.80;76.20;;;;;;1989371;28;20182;-74
2021/12/20 03:21:34;;;;;;;7.07;2.80;;;14.80;76.30;;;;;;1989412;28;20217;-74
2021/12/20 03:22:34;;;;;;;5.70;2.80;;;14.80;76.20;;;;;;1988894;28;20166;-74
2021/12/20 03:23:32;;;;;;;3.63;2.30;;;14.80;76.30;;;;;;1989173;28;20257;-74
2021/12/20 03:24:31;;;;;;;5.00;2.37;;;14.90;76.30;;;;;;1989503;28;20210;-75
2021/12/20 03:25:29;;;;;;;6.20;3.30;;;14.80;76.20;;;;;;1989515;28;20170;-74
2021/12/20 03:26:28;;;;;;;9.40;2.80;;;14.80;76.20;;;;;;1989472;28;20194;-74
2021/12/20 03:27:27;;;;;;;4.40;2.60;;;14.80;76.40;;;;;;1989355;28;20628;-74
2021/12/20 03:28:25;;;;;;;3.53;2.10;;;14.80;76.30;;;;;;1988692;28;20229;-74
2021/12/20 03:29:24;;;;;;;6.30;2.60;;;14.80;76.20;;;;;;1989041;28;20181;-74
2021/12/20 03:30:25;;;;;;;4.83;2.50;;;14.80;76.50;;;;;;1989269;28;20189;-74
2021/12/20 03:31:23;;;;;;;5.53;2.35;;;14.80;76.80;;;;;;1989159;28;20540;-74
2021/12/20 03:32:22;;;;;;;4.37;2.90;;;14.80;76.60;;;;;;1989493;28;20178;-73
2021/12/20 03:33:20;;;;;;;4.90;2.60;;;14.80;77.00;;;;;;1989330;28;20642;-74
2021/12/20 03:34:20;;;;;;;6.80;2.17;;;14.80;76.80;;;;;;1989365;28;20178;-74
2021/12/20 03:35:18;;;;;;;4.97;2.65;;;14.80;76.70;;;;;;1989424;28;20178;-74
2021/12/20 03:36:17;;;;;;;6.03;3.30;;;14.70;76.80;;;;;;1989286;28;20230;-74
2021/12/20 03:37:16;;;;;;;4.70;2.83;;;14.80;77.60;;;;;;1989517;28;20182;-74
2021/12/20 03:38:14;;;;;;;6.93;2.20;;;14.80;76.90;;;;;;1989344;28;20213;-74
2021/12/20 03:39:13;;;;;;;4.10;2.97;;;14.80;76.70;;;;;;1989351;28;20186;-73
2021/12/20 03:40:12;;;;;;;6.60;2.57;;;14.80;76.10;;;;;;1989342;28;20175;-73
2021/12/20 03:41:11;;;;;;;3.85;2.13;;;14.80;76.10;;;;;;1989252;28;20402;-74
2021/12/20 03:42:09;;;;;;;4.30;2.40;;;14.80;76.20;;;;;;1989422;28;20178;-74
2021/12/20 03:43:10;;;;;;;5.37;3.07;;;14.80;76.40;;;;;;1989289;28;20173;-74
2021/12/20 03:44:11;;;;;;;7.25;2.55;;;14.80;75.90;;;;;;1988736;28;20630;-74
2021/12/20 03:45:10;;;;;;;4.70;2.72;;;14.80;76.00;;;;;;1988630;28;20174;-74
2021/12/20 03:46:09;;;;;;;5.50;2.97;;;14.80;75.90;;;;;;1989301;28;20170;-73
2021/12/20 03:47:07;;;;;;;7.07;3.07;;;14.80;75.90;;;;;;1989280;28;20249;-73
2021/12/20 03:48:06;;;;;;;3.87;2.50;;;14.80;76.10;;;;;;1989196;28;20449;-73
2021/12/20 03:49:06;;;;;;;5.27;2.80;;;14.80;76.00;;;;;;1989209;28;20179;-73
2021/12/20 03:50:04;;;;;;;6.38;2.40;;;14.80;75.90;;;;;;1989403;28;20192;-73
2021/12/20 03:51:04;;;;;;;3.60;2.40;;;14.80;76.00;;;;;;1989155;28;20179;-73
2021/12/20 03:52:04;;;;;;;5.05;2.40;;;14.80;75.90;;;;;;1989561;28;20738;-73
2021/12/20 03:53:02;;;;;;;4.05;2.60;;;14.80;75.90;;;;;;1989128;28;20294;-73
2021/12/20 03:54:01;;;;;;;3.63;2.00;;;14.80;75.80;;;;;;1989254;28;20186;-72
2021/12/20 03:54:59;;;;;;;7.33;2.53;;;14.80;75.80;;;;;;1989146;28;20174;-74
2021/12/20 03:55:58;;;;;;;4.87;2.50;;;14.80;75.60;;;;;;1989133;28;20174;-74
2021/12/20 03:56:57;;;;;;;7.40;3.37;;;14.80;75.70;;;;;;1988858;28;20205;-74
2021/12/20 03:57:55;;;;;;;5.20;2.37;;;14.70;75.70;;;;;;1988569;28;20175;-73
2021/12/20 03:58:54;;;;;;;3.83;2.53;;;14.80;75.60;;;;;;1989152;28;20174;-73
2021/12/20 03:59:53;;;;;;;4.10;2.87;;;14.70;75.50;;;;;;1989125;28;20523;-74
2021/12/20 04:00:52;;;;;;;5.68;2.70;;;14.70;75.60;;;;;;1989167;28;20190;-73
2021/12/20 04:01:51;;;;;;;7.07;2.80;;;14.70;75.70;;;;;;1989245;28;20269;-74
2021/12/20 04:02:49;;;;;;;2.42;1.75;;;14.70;75.70;;;;;;1989254;28;20643;-74
2021/12/20 04:03:50;;;;;;;6.33;2.40;;;14.70;75.90;;;;;;1989232;28;20185;-73
2021/12/20 04:04:48;;;;;;;4.00;2.22;;;14.70;75.80;;;;;;1989090;28;20175;-74
2021/12/20 04:05:47;;;;;;;5.10;2.70;;;14.70;75.90;;;;;;1989183;28;20265;-74
2021/12/20 04:06:46;;;;;;;5.70;2.50;;;14.70;75.80;;;;;;1989056;28;20194;-75
2021/12/20 04:07:45;;;;;;;6.40;2.38;;;14.70;75.60;;;;;;1989229;28;20167;-74
2021/12/20 04:08:44;;;;;;;6.03;2.73;;;14.70;75.90;;;;;;1989048;28;20178;-74
2021/12/20 04:09:42;;;;;;;8.83;2.93;;;14.70;76.00;;;;;;1989068;28;20166;-74
2021/12/20 04:10:42;;;;;;;2.77;2.30;;;14.70;75.70;;;;;;1989169;28;20228;-74
2021/12/20 04:11:41;;;;;;;11.75;2.78;;;14.80;75.80;;;;;;1989143;28;20174;-74
2021/12/20 04:12:40;;;;;;;5.37;2.50;;;14.70;75.70;;;;;;1989249;28;20174;-74
2021/12/20 04:13:38;;;;;;;6.13;2.60;;;14.80;75.80;;;;;;1989175;28;20583;-74
2021/12/20 04:14:37;;;;;;;5.13;1.97;;;14.70;75.80;;;;;;1989188;28;20174;-74
2021/12/20 04:15:36;;;;;;;4.00;2.33;;;14.70;75.60;;;;;;1989238;28;20174;-75
2021/12/20 04:16:36;;;;;;;5.63;3.28;;;14.70;75.80;;;;;;1988538;28;20210;-74
2021/12/20 04:17:34;;;;;;;3.17;2.50;;;14.70;75.80;;;;;;1988519;28;20291;-74
2021/12/20 04:18:33;;;;;;;3.37;2.00;;;14.80;75.90;;;;;;1988979;28;20608;-74
2021/12/20 04:19:32;;;;;;;4.40;2.60;;;14.70;75.70;;;;;;1989125;28;20163;-75
2021/12/20 04:20:31;;;;;;;3.63;2.03;;;14.70;75.90;;;;;;1988887;28;20661;-74
2021/12/20 04:21:30;;;;;;;4.03;1.97;;;14.70;76.20;;;;;;1988972;28;20171;-75
2021/12/20 04:22:29;;;;;;;5.38;2.33;;;14.70;76.20;;;;;;1989154;28;20413;-74
2021/12/20 04:23:27;;;;;;;7.93;3.53;;;14.80;76.30;;;;;;1989080;28;20178;-74
2021/12/20 04:24:26;;;;;;;7.30;2.50;;;15.00;76.50;;;;;;1989136;28;20167;-74
2021/12/20 04:25:25;;;;;;;5.37;2.20;;;14.70;76.20;;;;;;1989026;28;20568;-74
2021/12/20 04:26:24;;;;;;;4.70;2.65;;;14.70;76.40;;;;;;1988309;28;20556;-75
2021/12/20 04:27:22;;;;;;;3.70;2.27;;;14.70;76.50;;;;;;1988504;28;20205;-74
2021/12/20 04:28:21;;;;;;;4.07;2.40;;;14.70;76.00;;;;;;1989009;28;20217;-74
2021/12/20 04:29:20;;;;;;;4.32;2.35;;;14.80;76.00;;;;;;1989023;28;20660;-75
2021/12/20 04:30:18;;;;;;;4.70;2.70;;;14.70;76.10;;;;;;1989002;28;20182;-74
2021/12/20 04:31:17;;;;;;;3.70;2.13;;;14.80;76.30;;;;;;1988906;28;20230;-74
2021/12/20 04:32:15;;;;;;;4.03;2.60;;;14.70;76.40;;;;;;1989031;28;20171;-74
2021/12/20 04:33:14;;;;;;;3.57;2.27;;;14.70;76.50;;;;;;1989089;28;20219;-75
2021/12/20 04:34:12;;;;;;;4.20;2.37;;;14.70;76.40;;;;;;1988959;28;20178;-74
2021/12/20 04:35:13;;;;;;;2.77;1.77;;;14.70;76.40;;;;;;1988978;28;20816;-75
2021/12/20 04:36:12;;;;;;;4.30;2.60;;;14.70;76.30;;;;;;1988904;28;20174;-74
2021/12/20 04:37:11;;;;;;;3.83;2.80;;;14.70;76.00;;;;;;1988960;28;20178;-74
2021/12/20 04:38:10;;;;;;;4.50;2.00;;;14.70;75.60;;;;;;1989070;28;20289;-74
2021/12/20 04:39:13;;;;;;;5.88;2.33;;;14.70;74.50;;;;;;1989190;28;20175;-74
2021/12/20 04:40:17;;;;;;;6.60;2.65;;;14.70;74.30;;;;;;1988919;28;20163;-74
2021/12/20 04:41:16;;;;;;;4.38;2.50;;;14.70;74.50;;;;;;1989126;28;20158;-74
2021/12/20 04:42:15;;;;;;;4.57;2.00;;;14.70;74.50;;;;;;1988272;28;20570;-74
2021/12/20 04:43:13;;;;;;;2.87;2.00;;;14.70;74.50;;;;;;1988452;28;20172;-74
2021/12/20 04:44:12;;;;;;;2.43;2.10;;;14.70;74.40;;;;;;1988882;28;20600;-74
2021/12/20 04:45:10;;;;;;;4.33;2.83;;;15.00;74.80;;;;;;1988903;28;20181;-74
2021/12/20 04:46:09;;;;;;;3.60;2.50;;;14.70;74.40;;;;;;1988871;28;20700;-74
2021/12/20 04:47:07;;;;;;;4.50;2.20;;;14.70;74.50;;;;;;1988986;28;20178;-74
2021/12/20 04:48:06;;;;;;;3.93;2.17;;;14.70;74.40;;;;;;1988897;28;20166;-74
2021/12/20 04:49:05;;;;;;;4.40;2.20;;;14.70;74.50;;;;;;1988904;28;20174;-75
2021/12/20 04:50:04;;;;;;;4.00;2.10;;;14.70;74.40;;;;;;1988984;28;20186;-74
2021/12/20 04:51:03;;;;;;;4.35;1.90;;;14.70;74.40;;;;;;1988771;28;20202;-75
2021/12/20 04:52:02;;;;;;;4.97;2.30;;;14.80;74.40;;;;;;1988915;28;20179;-74
2021/12/20 04:53:01;;;;;;;5.47;2.60;;;14.80;74.90;;;;;;1989033;28;20186;-74
2021/12/20 04:53:59;;;;;;;3.30;2.20;;;14.80;74.70;;;;;;1989059;28;20174;-74
2021/12/20 04:54:59;;;;;;;3.00;1.80;;;14.80;74.10;;;;;;1988933;28;20874;-74
2021/12/20 04:55:58;;;;;;;4.10;2.03;;;14.80;74.30;;;;;;1988818;28;20185;-74
2021/12/20 04:56:56;;;;;;;5.67;2.43;;;14.80;74.10;;;;;;1988213;28;20193;-74
2021/12/20 04:57:56;;;;;;;2.73;1.67;;;14.80;74.20;;;;;;1988250;28;20174;-73
2021/12/20 04:58:56;;;;;;;3.95;2.03;;;14.80;74.20;;;;;;1988768;28;20174;-73
2021/12/20 04:59:54;;;;;;;5.30;2.38;;;14.90;74.30;;;;;;1988929;28;20265;-74
2021/12/20 05:00:53;;;;;;;3.80;1.97;;;14.90;74.20;;;;;;1989040;28;20236;-74
2021/12/20 05:01:51;;;;;;;2.60;1.93;;;14.90;74.10;;;;;;1988864;28;20167;-74
2021/12/20 05:02:50;;;;;;;3.40;2.10;;;14.90;74.10;;;;;;1988919;28;20695;-74
2021/12/20 05:03:49;;;;;;;4.20;2.10;;;14.90;74.00;;;;;;1988887;28;20630;-73
2021/12/20 05:04:47;;;;;;;3.40;2.10;;;14.90;73.90;;;;;;1988926;28;20186;-74
2021/12/20 05:05:46;;;;;;;2.73;1.83;;;15.00;73.80;;;;;;1988922;28;20535;-74
2021/12/20 05:06:45;;;;;;;4.57;2.23;;;15.00;73.70;;;;;;1988858;28;20190;-74
2021/12/20 05:07:45;;;;;;;2.80;1.77;;;14.90;73.60;;;;;;1988868;28;20539;-74
2021/12/20 05:08:50;;;;;;;3.67;1.80;;;14.90;73.40;;;;;;1989242;28;20185;-74
2021/12/20 05:09:49;;;;;;;3.50;1.70;;;14.90;73.60;;;;;;1989793;28;20181;-73
2021/12/20 05:10:47;;;;;;;5.13;2.13;;;15.20;74.00;;;;;;1989821;28;20204;-75
2021/12/20 05:11:57;;;;;;;3.47;1.80;;;14.90;73.70;;;;;;1990373;28;20254;-74
2021/12/20 05:13:03;;;;;;;3.05;2.08;;;14.90;73.60;;;;;;1990452;28;20170;-74
2021/12/20 05:14:02;;;;;;;4.15;2.40;;;14.90;73.50;;;;;;1990333;28;20179;-74
2021/12/20 05:15:01;;;;;;;4.40;2.20;;;14.90;73.50;;;;;;1990295;28;20186;-74
2021/12/20 05:15:59;;;;;;;6.17;2.10;;;14.90;73.60;;;;;;1990061;28;20277;-74
2021/12/20 05:16:58;;;;;;;2.17;1.83;;;14.90;73.60;;;;;;1990363;28;20175;-74
2021/12/20 05:17:57;;;;;;;3.70;1.70;;;14.90;73.60;;;;;;1990313;28;20222;-74
2021/12/20 05:18:55;;;;;;;5.93;2.53;;;14.90;73.70;;;;;;1990428;28;20286;-74
2021/12/20 05:19:54;;;;;;;3.03;2.30;;;14.90;73.60;;;;;;1989785;28;20264;-73
2021/12/20 05:20:52;;;;;;;3.57;1.90;;;14.90;73.50;;;;;;1989699;28;20633;-74